Urb Corales del Mar, Puerto Rico
Current Conditions -  °F | °C
As of 1:58 PM on Wednesday 26 Nov 2014 (Local Time) from TJIG Reporting Station
Broken Clouds Broken Clouds  
Wind Chill: 84°   Ceiling: 10000
Heat Index: 91°   Visibility: 10mi
Dew Point: 73°   Wind: 12mph
Humidity: 70%   Direction: 90°E
Pressure: 30"   Gusts: NA
Location:  17.9903°N, 66.2815°W
Report Text: TJIG 261758Z 09010KT 10SM SCT030 BKN100 29/23 A3000 RMK RY09 IN USE ATIS I
Loading
Personal Weather Stations






























Interactive Weather Map New forecast layout! Learn more

10-Day Weather Forecast

Advertisements
Track Severe Weather on mobile